createdAt,value
2018-09-18T00:00:11.706Z,20.10
2018-09-18T00:02:39.401Z,19.90
2018-09-18T00:05:07.065Z,19.60
2018-09-18T00:07:34.660Z,19.30
2018-09-18T00:10:02.403Z,19.30
2018-09-18T00:12:30.015Z,19.20
2018-09-18T00:14:57.677Z,18.90
2018-09-18T00:17:25.304Z,18.80
2018-09-18T00:19:53.589Z,18.70
2018-09-18T00:22:21.311Z,18.60
2018-09-18T00:24:48.912Z,18.40
2018-09-18T00:27:16.467Z,18.30
2018-09-18T00:29:44.718Z,18.10
2018-09-18T00:32:12.322Z,18.00
2018-09-18T00:34:39.916Z,17.80
2018-09-18T00:37:07.481Z,17.80
2018-09-18T00:39:35.072Z,17.80
2018-09-18T00:42:02.938Z,17.60
2018-09-18T00:44:31.183Z,17.60
2018-09-18T00:46:59.388Z,17.40
2018-09-18T00:49:27.008Z,17.30
2018-09-18T00:51:54.788Z,17.20
2018-09-18T00:54:22.495Z,17.20
2018-09-18T00:56:51.068Z,17.10
2018-09-18T00:59:18.720Z,17.20
2018-09-18T01:01:50.864Z,17.00
2018-09-18T01:04:18.624Z,17.10
2018-09-18T01:06:46.295Z,17.10
2018-09-18T01:09:13.915Z,17.00
2018-09-18T01:11:41.524Z,17.00
2018-09-18T01:14:09.098Z,16.90
2018-09-18T01:16:36.930Z,16.80
2018-09-18T01:19:04.598Z,16.90
2018-09-18T01:21:32.194Z,16.90
2018-09-18T01:24:00.504Z,17.00
2018-09-18T01:26:28.825Z,17.00
2018-09-18T01:28:56.453Z,17.00
2018-09-18T01:31:24.032Z,16.90
2018-09-18T01:33:51.923Z,16.90
2018-09-18T01:36:19.528Z,16.80
2018-09-18T01:38:47.152Z,16.70
2018-09-18T01:41:14.835Z,16.70
2018-09-18T01:43:42.435Z,16.60
2018-09-18T01:46:09.960Z,16.60
2018-09-18T01:48:37.558Z,16.60
2018-09-18T01:51:05.404Z,16.50
2018-09-18T01:53:33.036Z,16.50
2018-09-18T01:56:00.742Z,16.50
2018-09-18T01:58:28.321Z,16.40
2018-09-18T02:00:56.328Z,16.40
2018-09-18T02:03:24.055Z,16.40
2018-09-18T02:05:51.648Z,16.30
2018-09-18T02:08:19.215Z,16.20
2018-09-18T02:10:47.423Z,16.30
2018-09-18T02:13:14.989Z,16.30
2018-09-18T02:15:43.192Z,16.10
2018-09-18T02:18:10.901Z,16.20
2018-09-18T02:20:39.150Z,16.20
2018-09-18T02:23:06.743Z,16.00
2018-09-18T02:25:34.344Z,16.00
2018-09-18T02:28:01.924Z,16.10
2018-09-18T02:30:29.472Z,16.10
2018-09-18T02:32:58.014Z,16.10
2018-09-18T02:35:25.565Z,15.90
2018-09-18T02:37:53.180Z,16.00
2018-09-18T02:40:20.793Z,15.90
2018-09-18T02:42:48.619Z,16.00
2018-09-18T02:45:16.224Z,15.80
2018-09-18T02:47:43.898Z,15.80
2018-09-18T02:50:12.215Z,15.80
2018-09-18T02:52:39.876Z,15.80
2018-09-18T02:55:07.472Z,15.90
2018-09-18T02:57:35.033Z,15.80
2018-09-18T03:00:02.644Z,15.80
2018-09-18T03:02:30.208Z,15.80
2018-09-18T03:04:58.898Z,15.90
2018-09-18T03:07:26.654Z,16.00
2018-09-18T03:09:54.253Z,15.90
2018-09-18T03:12:22.027Z,15.80
2018-09-18T03:14:49.667Z,15.70
2018-09-18T03:17:17.252Z,15.70
2018-09-18T03:19:44.872Z,15.70
2018-09-18T03:22:12.384Z,15.70
2018-09-18T03:24:40.071Z,15.80
2018-09-18T03:27:07.737Z,15.70
2018-09-18T03:29:35.358Z,15.60
2018-09-18T03:32:03.612Z,15.50
2018-09-18T03:34:31.157Z,15.50
2018-09-18T03:36:58.763Z,15.60
2018-09-18T03:39:26.369Z,15.70
2018-09-18T03:41:53.907Z,15.70
2018-09-18T03:44:21.611Z,15.60
2018-09-18T03:46:49.241Z,15.70
2018-09-18T03:49:17.600Z,15.60
2018-09-18T03:51:45.175Z,15.60
2018-09-18T03:54:12.840Z,15.60
2018-09-18T03:56:40.486Z,15.50
2018-09-18T03:59:08.052Z,15.40
2018-09-18T04:01:35.640Z,15.50
2018-09-18T04:04:03.978Z,15.60
2018-09-18T04:06:31.600Z,15.50
2018-09-18T04:08:59.083Z,15.50
2018-09-18T04:11:26.754Z,15.50
2018-09-18T04:13:54.382Z,15.40
2018-09-18T04:16:22.130Z,15.40
2018-09-18T04:18:49.866Z,15.40
2018-09-18T04:21:18.099Z,15.30
2018-09-18T04:23:45.872Z,15.20
2018-09-18T04:26:13.516Z,15.30
2018-09-18T04:28:42.080Z,15.30
2018-09-18T04:31:10.155Z,15.30
2018-09-18T04:33:37.793Z,15.10
2018-09-18T04:36:05.452Z,15.20
2018-09-18T04:38:33.114Z,15.10
2018-09-18T04:41:00.686Z,15.20
2018-09-18T04:43:28.234Z,15.20
2018-09-18T04:45:55.909Z,15.10
2018-09-18T04:48:23.558Z,15.20
2018-09-18T04:50:51.761Z,15.20
2018-09-18T04:53:19.390Z,15.10
2018-09-18T04:55:46.972Z,15.10
2018-09-18T04:58:14.708Z,15.10
2018-09-18T05:00:42.855Z,15.00
2018-09-18T05:03:11.294Z,15.00
2018-09-18T05:05:38.852Z,15.00
2018-09-18T05:08:06.509Z,15.00
2018-09-18T05:10:34.032Z,15.10
2018-09-18T05:13:01.615Z,15.10
2018-09-18T05:15:29.215Z,15.00
2018-09-18T05:17:56.881Z,15.10
2018-09-18T05:20:24.543Z,15.20
2018-09-18T05:22:52.260Z,15.10
2018-09-18T05:25:20.045Z,15.10
2018-09-18T05:27:47.582Z,15.10
2018-09-18T05:30:15.946Z,15.20
2018-09-18T05:32:44.105Z,15.30
2018-09-18T05:35:11.679Z,15.40
2018-09-18T05:37:39.283Z,15.30
2018-09-18T05:40:06.961Z,15.30
2018-09-18T05:42:34.632Z,15.50
2018-09-18T05:45:02.304Z,15.50
2018-09-18T05:47:30.588Z,15.60
2018-09-18T05:49:59.033Z,15.60
2018-09-18T05:52:26.879Z,15.50
2018-09-18T05:54:54.724Z,15.50
2018-09-18T05:57:22.303Z,15.50
2018-09-18T05:59:49.933Z,15.50
2018-09-18T06:12:37.217Z,15.80
2018-09-18T06:17:36.875Z,15.90
2018-09-18T06:20:05.186Z,16.00
2018-09-18T06:22:32.816Z,16.00
2018-09-18T06:25:01.224Z,16.00
2018-09-18T06:27:29.541Z,16.10
2018-09-18T06:29:57.969Z,16.10
2018-09-18T06:32:25.806Z,16.20
2018-09-18T06:34:53.450Z,16.30
2018-09-18T06:37:21.864Z,16.30
2018-09-18T06:39:50.469Z,16.40
2018-09-18T06:42:18.129Z,16.40
2018-09-18T06:44:46.591Z,16.60
2018-09-18T06:47:14.356Z,16.70
2018-09-18T06:49:42.992Z,16.90
2018-09-18T06:52:10.790Z,17.00
2018-09-18T06:54:38.553Z,17.20
2018-09-18T06:57:06.495Z,17.30
2018-09-18T06:59:34.963Z,17.50
2018-09-18T07:02:03.227Z,17.70
2018-09-18T07:04:31.177Z,17.80
2018-09-18T07:07:00.182Z,18.00
2018-09-18T07:09:28.618Z,18.20
2018-09-18T07:11:56.299Z,18.40
2018-09-18T07:14:24.245Z,18.70
2018-09-18T07:16:52.081Z,18.90
2018-09-18T07:19:20.141Z,19.10
2018-09-18T07:21:48.148Z,19.40
2018-09-18T07:24:16.165Z,19.50
2018-09-18T07:26:44.226Z,19.80
2018-09-18T07:29:21.336Z,19.90
2018-09-18T07:31:49.088Z,20.20
2018-09-18T07:34:17.155Z,20.50
2018-09-18T07:36:45.009Z,20.70
2018-09-18T07:39:12.838Z,20.90
2018-09-18T07:41:40.615Z,21.10
2018-09-18T07:44:08.807Z,21.40
2018-09-18T07:46:36.586Z,21.50
2018-09-18T07:49:05.267Z,21.70
2018-09-18T07:51:33.956Z,21.90
2018-09-18T07:54:02.950Z,22.10
2018-09-18T07:56:31.208Z,22.30
2018-09-18T07:58:59.851Z,22.50
2018-09-18T08:01:27.911Z,22.70
2018-09-18T08:03:55.581Z,22.70
2018-09-18T08:06:23.347Z,22.70
2018-09-18T08:08:51.592Z,22.80
2018-09-18T08:11:19.370Z,23.00
2018-09-18T08:13:47.196Z,22.90
2018-09-18T08:16:14.935Z,23.00
2018-09-18T08:18:42.949Z,23.10
2018-09-18T08:21:10.690Z,23.20
2018-09-18T08:23:38.718Z,23.30
2018-09-18T08:26:06.432Z,23.40
2018-09-18T08:28:34.110Z,23.60
2018-09-18T08:31:01.705Z,23.70
2018-09-18T08:33:30.064Z,23.90
2018-09-18T08:35:58.310Z,24.00
2018-09-18T08:38:26.100Z,24.00
2018-09-18T08:40:53.655Z,24.10
2018-09-18T08:43:21.260Z,24.30
2018-09-18T08:45:49.410Z,24.40
2018-09-18T08:48:17.715Z,24.40
2018-09-18T08:50:45.431Z,24.40
2018-09-18T08:53:14.452Z,24.40
2018-09-18T08:55:42.264Z,24.40
2018-09-18T08:58:10.052Z,24.40
2018-09-18T09:00:37.718Z,24.40
2018-09-18T09:03:06.112Z,24.50
2018-09-18T09:05:33.725Z,24.60
2018-09-18T09:08:03.425Z,24.80
2018-09-18T09:10:31.099Z,24.90
2018-09-18T09:12:58.691Z,25.00
2018-09-18T09:15:26.452Z,25.00
2018-09-18T09:17:54.062Z,24.90
2018-09-18T09:20:21.612Z,25.10
2018-09-18T09:22:50.141Z,25.10
2018-09-18T09:25:18.231Z,25.20
2018-09-18T09:27:46.384Z,25.30
2018-09-18T09:30:14.281Z,25.40
2018-09-18T09:32:42.258Z,25.50
2018-09-18T09:35:11.043Z,25.70
2018-09-18T09:37:39.700Z,25.70
2018-09-18T09:40:07.812Z,25.80
2018-09-18T09:42:35.521Z,26.00
2018-09-18T09:45:03.398Z,26.10
2018-09-18T09:47:31.087Z,26.10
2018-09-18T09:49:58.810Z,26.20
2018-09-18T09:52:26.580Z,26.20
2018-09-18T09:54:54.356Z,26.30
2018-09-18T09:57:22.044Z,26.40
2018-09-18T09:59:50.753Z,26.40
2018-09-18T10:02:23.083Z,26.50
2018-09-18T10:04:50.740Z,26.30
2018-09-18T10:07:18.998Z,26.20
2018-09-18T10:09:46.804Z,26.30
2018-09-18T10:12:14.372Z,26.40
2018-09-18T10:14:42.166Z,26.50
2018-09-18T10:17:10.286Z,26.60
2018-09-18T10:19:37.973Z,26.70
2018-09-18T10:22:05.772Z,26.80
2018-09-18T10:24:34.529Z,26.90
2018-09-18T10:27:02.424Z,27.10
2018-09-18T10:29:30.289Z,27.10
2018-09-18T10:31:59.163Z,27.20
2018-09-18T10:34:27.004Z,27.20
2018-09-18T10:36:55.630Z,27.20
2018-09-18T10:39:23.443Z,27.20
2018-09-18T10:41:51.802Z,27.20
2018-09-18T10:44:19.406Z,27.30
2018-09-18T10:46:47.263Z,27.40
2018-09-18T10:49:15.219Z,27.60
2018-09-18T10:51:49.743Z,27.90
2018-09-18T10:54:17.660Z,28.10
2018-09-18T10:56:45.369Z,28.10
2018-09-18T10:59:13.618Z,28.20
2018-09-18T11:01:41.361Z,28.30
2018-09-18T11:04:09.192Z,28.40
2018-09-18T11:06:37.101Z,28.50
2018-09-18T11:09:07.854Z,28.70
2018-09-18T11:11:35.569Z,28.90
2018-09-18T11:14:03.976Z,29.00
2018-09-18T11:16:31.674Z,29.00
2018-09-18T11:18:59.381Z,28.90
2018-09-18T11:21:27.270Z,29.10
2018-09-18T11:23:55.015Z,29.10
2018-09-18T11:26:22.814Z,29.20
2018-09-18T11:28:50.531Z,29.10
2018-09-18T11:31:18.382Z,29.20
2018-09-18T11:33:46.189Z,29.30
2018-09-18T11:36:14.940Z,29.30
2018-09-18T11:38:43.380Z,29.30
2018-09-18T11:41:11.204Z,29.20
2018-09-18T11:43:39.121Z,29.30
2018-09-18T11:46:07.215Z,29.30
2018-09-18T11:51:02.761Z,29.10
2018-09-18T11:53:31.919Z,29.00
2018-09-18T11:55:59.567Z,29.00
2018-09-18T11:58:27.373Z,29.10
2018-09-18T12:00:55.361Z,29.30
2018-09-18T12:03:23.264Z,29.40
2018-09-18T12:05:51.096Z,29.30
2018-09-18T12:08:19.282Z,29.40
2018-09-18T12:10:47.231Z,29.50
2018-09-18T12:13:15.128Z,29.50
2018-09-18T12:15:43.016Z,29.60
2018-09-18T12:18:10.790Z,29.70
2018-09-18T12:20:38.585Z,29.60
2018-09-18T12:23:06.623Z,29.70
2018-09-18T12:25:34.426Z,29.80
2018-09-18T12:28:02.277Z,29.80
2018-09-18T12:30:30.169Z,29.90
2018-09-18T12:32:58.715Z,30.00
2018-09-18T12:35:26.979Z,30.10
2018-09-18T12:37:54.742Z,30.20
2018-09-18T12:40:22.481Z,30.00
2018-09-18T12:42:50.930Z,30.00
2018-09-18T12:45:18.585Z,30.20
2018-09-18T12:47:47.098Z,30.20
2018-09-18T12:50:15.124Z,30.50
2018-09-18T12:52:43.048Z,30.40
2018-09-18T12:55:10.798Z,30.40
2018-09-18T12:57:38.621Z,30.40
2018-09-18T13:00:06.911Z,30.10
2018-09-18T13:02:35.017Z,30.10
2018-09-18T13:05:02.898Z,30.20
2018-09-18T13:07:30.656Z,30.40
2018-09-18T13:09:58.414Z,30.30
2018-09-18T13:12:26.015Z,30.20
2018-09-18T13:14:53.920Z,30.40
2018-09-18T13:17:21.687Z,30.50
2018-09-18T13:19:49.633Z,30.60
2018-09-18T13:22:17.478Z,30.90
2018-09-18T13:24:45.733Z,30.90
2018-09-18T13:27:13.462Z,31.00
2018-09-18T13:29:41.285Z,31.10
2018-09-18T13:32:09.305Z,31.30
2018-09-18T13:34:37.025Z,31.20
2018-09-18T13:37:05.409Z,31.10
2018-09-18T13:39:33.371Z,31.20
2018-09-18T13:42:01.443Z,31.30
2018-09-18T13:44:29.391Z,31.20
2018-09-18T13:46:57.134Z,31.10
2018-09-18T13:49:24.764Z,31.10
2018-09-18T13:51:52.611Z,31.10
2018-09-18T13:54:20.474Z,31.30
2018-09-18T13:56:48.486Z,31.70
2018-09-18T13:59:16.215Z,31.60
2018-09-18T14:01:44.348Z,31.20
2018-09-18T14:04:12.766Z,31.10
2018-09-18T14:06:40.898Z,31.00
2018-09-18T14:09:09.204Z,30.80
2018-09-18T14:11:38.962Z,30.70
2018-09-18T14:14:06.999Z,30.80
2018-09-18T14:16:35.403Z,31.00
2018-09-18T14:19:03.574Z,31.10
2018-09-18T14:21:32.387Z,31.10
2018-09-18T14:24:00.856Z,31.00
2018-09-18T14:26:29.748Z,30.90
2018-09-18T14:28:58.013Z,31.00
2018-09-18T14:31:25.778Z,31.00
2018-09-18T14:33:54.858Z,30.70
2018-09-18T14:36:22.612Z,30.40
2018-09-18T14:38:50.693Z,30.20
2018-09-18T14:41:18.432Z,30.10
2018-09-18T14:43:46.808Z,29.70
2018-09-18T14:46:14.600Z,29.50
2018-09-18T14:48:43.049Z,29.50
2018-09-18T14:51:11.372Z,29.60
2018-09-18T14:53:38.961Z,29.80
2018-09-18T14:56:06.600Z,30.10
2018-09-18T14:58:41.417Z,30.10
2018-09-18T15:01:10.097Z,30.20
2018-09-18T15:03:38.786Z,30.30
2018-09-18T15:06:07.776Z,30.30
2018-09-18T15:08:35.683Z,30.10
2018-09-18T15:11:03.644Z,30.00
2018-09-18T15:13:31.373Z,29.90
2018-09-18T15:16:00.205Z,29.70
2018-09-18T15:18:27.896Z,29.70
2018-09-18T15:20:55.822Z,29.60
2018-09-18T15:23:23.415Z,29.50
2018-09-18T15:25:51.864Z,29.40
2018-09-18T15:28:19.475Z,29.30
2018-09-18T15:30:47.162Z,29.20
2018-09-18T15:33:19.632Z,29.10
2018-09-18T15:35:48.370Z,29.00
2018-09-18T15:38:16.180Z,29.10
2018-09-18T15:40:43.843Z,29.00
2018-09-18T15:43:11.674Z,29.10
2018-09-18T15:45:39.675Z,29.20
2018-09-18T15:48:07.358Z,29.20
2018-09-18T15:50:35.001Z,29.10
2018-09-18T15:53:02.762Z,29.10
2018-09-18T15:55:31.312Z,29.20
2018-09-18T15:57:59.217Z,29.20
2018-09-18T16:00:26.773Z,29.30
2018-09-18T16:02:55.631Z,29.30
2018-09-18T16:05:23.429Z,29.20
2018-09-18T16:07:57.896Z,29.00
2018-09-18T16:10:25.601Z,28.90
2018-09-18T16:12:53.433Z,29.10
2018-09-18T16:15:22.665Z,29.10
2018-09-18T16:17:50.420Z,29.20
2018-09-18T16:20:18.055Z,29.20
2018-09-18T16:22:46.192Z,29.30
2018-09-18T16:25:14.168Z,29.40
2018-09-18T16:27:41.964Z,29.30
2018-09-18T16:30:09.725Z,29.20
2018-09-18T16:32:37.416Z,29.20
2018-09-18T16:35:05.245Z,29.20
2018-09-18T16:37:33.251Z,29.10
2018-09-18T16:40:01.728Z,29.00
2018-09-18T16:42:29.637Z,28.90
2018-09-18T16:44:58.148Z,28.80
2018-09-18T16:47:26.216Z,28.70
2018-09-18T16:49:54.015Z,28.60
2018-09-18T16:52:23.000Z,28.40
2018-09-18T16:54:50.941Z,28.30
2018-09-18T16:57:18.811Z,28.10
2018-09-18T16:59:46.706Z,28.10
2018-09-18T17:02:14.764Z,28.00
2018-09-18T17:04:42.608Z,28.00
2018-09-18T17:07:10.576Z,28.00
2018-09-18T17:09:38.441Z,27.80
2018-09-18T17:12:06.909Z,27.60
2018-09-18T17:14:34.652Z,27.40
2018-09-18T17:17:02.570Z,27.30
2018-09-18T17:19:30.648Z,27.30
2018-09-18T17:21:58.684Z,27.00
2018-09-18T17:24:30.791Z,27.00
2018-09-18T17:26:58.740Z,27.00
2018-09-18T17:29:26.638Z,27.00
2018-09-18T17:31:54.843Z,26.90
2018-09-18T17:34:22.823Z,26.80
2018-09-18T17:36:50.656Z,26.70
2018-09-18T17:39:19.314Z,26.60
2018-09-18T17:41:47.972Z,26.60
2018-09-18T17:44:16.156Z,26.50
2018-09-18T17:46:44.034Z,26.50
2018-09-18T17:49:12.102Z,26.40
2018-09-18T17:51:39.953Z,26.40
2018-09-18T17:54:07.919Z,26.30
2018-09-18T17:56:36.378Z,26.20
2018-09-18T17:59:04.268Z,26.10
2018-09-18T18:01:32.250Z,26.00
2018-09-18T18:04:00.249Z,25.80
2018-09-18T18:06:28.318Z,25.80
2018-09-18T18:08:56.043Z,25.60
2018-09-18T18:11:24.900Z,25.60
2018-09-18T18:13:52.919Z,25.50
2018-09-18T18:16:20.788Z,25.40
2018-09-18T18:18:48.707Z,25.20
2018-09-18T18:21:16.647Z,25.00
2018-09-18T18:23:44.430Z,24.90
2018-09-18T18:26:12.706Z,24.80
2018-09-18T18:28:40.717Z,24.70
2018-09-18T18:31:09.678Z,24.60
2018-09-18T18:33:37.503Z,24.40
2018-09-18T18:36:05.398Z,24.30
2018-09-18T18:38:33.235Z,24.20
2018-09-18T18:41:02.262Z,24.10
2018-09-18T18:43:30.554Z,24.20
2018-09-18T18:45:58.567Z,24.00
2018-09-18T18:48:26.439Z,24.00
2018-09-18T18:50:54.206Z,24.00
2018-09-18T18:53:22.379Z,24.00
2018-09-18T18:55:50.593Z,23.90
2018-09-18T18:58:18.712Z,23.90
2018-09-18T19:00:46.734Z,23.90
2018-09-18T19:03:15.574Z,23.90
2018-09-18T19:05:44.606Z,23.80
2018-09-18T19:08:13.439Z,23.80
2018-09-18T19:10:42.083Z,23.80
2018-09-18T19:13:11.971Z,23.80
2018-09-18T19:15:40.715Z,23.90
2018-09-18T19:18:09.943Z,23.80
2018-09-18T19:20:40.309Z,23.80
2018-09-18T19:23:12.791Z,23.80
2018-09-18T19:25:41.082Z,23.70
2018-09-18T19:28:09.219Z,23.70
2018-09-18T19:30:41.978Z,23.70
2018-09-18T19:33:10.265Z,23.70
2018-09-18T19:35:38.059Z,23.60
2018-09-18T19:38:05.960Z,23.60
2018-09-18T19:40:34.140Z,23.50
2018-09-18T19:43:10.680Z,23.40
2018-09-18T19:45:38.401Z,23.40
2018-09-18T19:48:07.256Z,23.30
2018-09-18T19:50:35.646Z,23.30
2018-09-18T19:53:04.053Z,23.10
2018-09-18T19:55:34.079Z,23.10
2018-09-18T19:58:03.470Z,23.10
2018-09-18T20:00:36.981Z,23.00
2018-09-18T20:03:06.535Z,22.90
2018-09-18T20:05:34.754Z,22.90
2018-09-18T20:08:07.622Z,22.80
2018-09-18T20:10:35.811Z,22.80
2018-09-18T20:13:05.302Z,22.90
2018-09-18T20:15:34.094Z,22.80
2018-09-18T20:18:02.934Z,22.60
2018-09-18T20:20:32.023Z,22.60
2018-09-18T20:23:00.881Z,22.50
2018-09-18T20:25:29.617Z,22.50
2018-09-18T20:27:59.115Z,22.70
2018-09-18T20:30:27.952Z,22.80
2018-09-18T20:32:56.312Z,22.80
2018-09-18T20:35:24.254Z,22.80
2018-09-18T20:37:52.373Z,22.90
2018-09-18T20:40:27.037Z,23.00
2018-09-18T20:42:55.575Z,23.00
2018-09-18T20:45:23.528Z,23.20
2018-09-18T20:47:51.628Z,23.10
2018-09-18T20:50:23.246Z,23.00
2018-09-18T20:52:54.971Z,23.00
2018-09-18T20:55:23.032Z,23.10
2018-09-18T20:57:51.691Z,23.20
2018-09-18T21:00:24.878Z,23.20
2018-09-18T21:02:52.993Z,23.20
2018-09-18T21:05:22.423Z,23.20
2018-09-18T21:07:50.833Z,23.20
2018-09-18T21:10:21.930Z,23.10
2018-09-18T21:12:54.053Z,23.10
2018-09-18T21:15:23.779Z,23.00
2018-09-18T21:17:53.183Z,23.00
2018-09-18T21:20:27.194Z,23.00
2018-09-18T21:22:55.670Z,23.10
2018-09-18T21:25:33.116Z,23.10
2018-09-18T21:28:01.711Z,23.10
2018-09-18T21:30:30.429Z,23.10
2018-09-18T21:33:02.933Z,22.90
2018-09-18T21:35:30.977Z,22.90
2018-09-18T21:38:00.194Z,22.80
2018-09-18T21:40:29.885Z,22.80
2018-09-18T21:42:59.069Z,22.80
2018-09-18T21:45:27.688Z,22.70
2018-09-18T21:47:55.725Z,22.70
2018-09-18T21:50:24.322Z,22.70
2018-09-18T21:52:58.062Z,22.70
2018-09-18T21:55:26.993Z,22.70
2018-09-18T21:57:55.937Z,22.60
2018-09-18T22:00:24.790Z,22.50
2018-09-18T22:03:00.093Z,22.40
2018-09-18T22:05:29.413Z,22.30
2018-09-18T22:08:01.090Z,22.30
2018-09-18T22:10:33.627Z,22.30
2018-09-18T22:13:02.269Z,22.30
2018-09-18T22:15:31.949Z,22.20
2018-09-18T22:18:00.167Z,22.10
2018-09-18T22:20:28.912Z,22.10
2018-09-18T22:22:59.626Z,22.00
2018-09-18T22:25:27.815Z,22.00
2018-09-18T22:28:12.401Z,21.90
2018-09-18T22:30:42.452Z,22.00
2018-09-18T22:33:16.939Z,22.00
2018-09-18T22:35:49.837Z,21.90
2018-09-18T22:38:26.931Z,21.80
2018-09-18T22:43:54.314Z,21.70
2018-09-18T22:46:27.304Z,21.70
2018-09-18T22:48:57.116Z,21.70
2018-09-18T22:51:27.322Z,21.70
2018-09-18T22:53:58.302Z,21.70
2018-09-18T22:56:28.528Z,21.70
2018-09-18T22:59:00.278Z,21.60
2018-09-18T23:01:34.171Z,21.60
2018-09-18T23:04:10.449Z,21.50
2018-09-18T23:06:44.236Z,21.60
2018-09-18T23:09:20.141Z,21.60
2018-09-18T23:26:13.298Z,21.40
2018-09-18T23:31:42.815Z,21.20
2018-09-18T23:34:17.633Z,21.10
2018-09-18T23:42:05.943Z,21.10
2018-09-18T23:44:34.719Z,21.00
2018-09-18T23:49:52.042Z,20.70
2018-09-18T23:52:24.639Z,20.50
2018-09-18T23:57:43.335Z,20.70
